Time;durP1;ratioP1;P1;durP2;ratioP2;P2;SDS_P1;SDS_P2;PMS_P1;PMS_P2;Temp;Humidity;BMP_temperature;BMP_pressure;BME280_temperature;BME280_humidity;BME280_pressure;Samples;Min_cycle;Max_cycle;Signal;HPM_P1;HPM_P2
2022/05/04 00:00:26;;;;;;;17.33;9.13;;;9.90;99.90;;;;;;5019241;28;20079;-58
2022/05/04 00:02:52;;;;;;;13.02;8.75;;;9.80;99.90;;;;;;5025527;28;20033;-57
2022/05/04 00:05:17;;;;;;;13.57;9.18;;;9.80;99.90;;;;;;5026493;28;20049;-56
2022/05/04 00:07:44;;;;;;;17.05;9.85;;;9.70;99.90;;;;;;5025971;28;20037;-56
2022/05/04 00:10:11;;;;;;;16.73;10.18;;;9.70;99.90;;;;;;5020474;28;20034;-60
2022/05/04 00:12:37;;;;;;;17.15;9.93;;;9.70;99.90;;;;;;5022096;28;20459;-59
2022/05/04 00:15:03;;;;;;;14.77;10.60;;;9.70;99.90;;;;;;5025524;28;20112;-59
2022/05/04 00:17:29;;;;;;;20.75;11.38;;;9.70;99.90;;;;;;5025093;28;20029;-60
2022/05/04 00:19:55;;;;;;;17.38;11.10;;;9.70;99.90;;;;;;5025120;28;20021;-59
2022/05/04 00:22:22;;;;;;;18.40;11.07;;;9.60;99.90;;;;;;5021657;28;20143;-59
2022/05/04 00:24:48;;;;;;;18.90;11.75;;;9.50;99.90;;;;;;5020633;28;20041;-59
2022/05/04 00:27:15;;;;;;;19.30;12.32;;;9.40;99.90;;;;;;4984352;28;20782;-57
2022/05/04 00:29:45;;;;;;;16.15;10.98;;;9.40;99.90;;;;;;5031596;28;20027;-59
2022/05/04 00:32:12;;;;;;;14.70;10.35;;;9.30;99.90;;;;;;5029089;28;20025;-59
2022/05/04 00:34:38;;;;;;;16.75;11.20;;;9.20;99.90;;;;;;5024080;28;20096;-59
2022/05/04 00:37:04;;;;;;;16.83;11.10;;;9.20;99.90;;;;;;5028576;28;20036;-59
2022/05/04 00:39:30;;;;;;;22.38;12.10;;;9.10;99.90;;;;;;5024634;28;20029;-59
2022/05/04 00:42:10;;;;;;;19.65;11.13;;;9.00;99.90;;;;;;5022083;28;20044;-59
2022/05/04 00:44:35;;;;;;;18.08;11.75;;;9.00;99.90;;;;;;5027890;28;20390;-58
2022/05/04 00:47:01;;;;;;;17.67;11.63;;;9.00;99.90;;;;;;5028170;28;20020;-58
2022/05/04 00:49:26;;;;;;;14.02;10.27;;;8.90;99.90;;;;;;5024199;28;20037;-58
2022/05/04 00:51:52;;;;;;;17.90;12.10;;;8.90;99.90;;;;;;5025066;28;20039;-61
2022/05/04 00:54:18;;;;;;;20.85;11.52;;;8.80;99.90;;;;;;5017450;28;20038;-58
2022/05/04 00:56:44;;;;;;;23.83;12.65;;;8.80;99.90;;;;;;5026064;28;20033;-58
2022/05/04 00:59:10;;;;;;;20.50;13.30;;;8.80;99.90;;;;;;5022036;28;20993;-55
2022/05/04 01:01:36;;;;;;;18.23;10.77;;;8.70;99.90;;;;;;5023138;28;20064;-57
2022/05/04 01:04:02;;;;;;;16.25;10.88;;;8.70;99.90;;;;;;5021096;28;20061;-55
2022/05/04 01:06:28;;;;;;;14.80;10.27;;;8.70;99.90;;;;;;5023957;28;20503;-56
2022/05/04 01:08:54;;;;;;;18.02;10.75;;;8.70;99.90;;;;;;5026506;28;20113;-55
2022/05/04 01:11:21;;;;;;;18.98;12.52;;;8.60;99.90;;;;;;5024111;28;20087;-57
2022/05/04 01:13:59;;;;;;;21.35;12.43;;;8.50;99.90;;;;;;5028262;28;20402;-56
2022/05/04 01:16:26;;;;;;;22.48;12.35;;;8.50;99.90;;;;;;5025206;28;20033;-59
2022/05/04 01:18:51;;;;;;;19.40;12.38;;;8.40;99.90;;;;;;5025602;28;20112;-59
2022/05/04 01:21:17;;;;;;;20.83;12.50;;;8.40;99.90;;;;;;5027731;28;20124;-60
2022/05/04 01:23:43;;;;;;;21.48;13.25;;;8.40;99.90;;;;;;5029292;28;20053;-58
2022/05/04 01:26:09;;;;;;;22.92;12.95;;;8.40;99.90;;;;;;5011366;28;20034;-57
2022/05/04 01:28:34;;;;;;;24.80;13.68;;;8.30;99.90;;;;;;5018848;28;20036;-59
2022/05/04 01:31:00;;;;;;;21.13;12.80;;;8.40;99.90;;;;;;5029143;28;20037;-57
2022/05/04 01:33:25;;;;;;;20.83;13.57;;;8.30;99.90;;;;;;5020479;28;20026;-60
2022/05/04 01:35:51;;;;;;;22.35;14.50;;;8.40;99.90;;;;;;5026943;28;20036;-55
2022/05/04 01:38:17;;;;;;;26.10;14.52;;;8.50;99.90;;;;;;5026826;28;20025;-57
2022/05/04 01:40:42;;;;;;;23.45;14.98;;;8.50;99.90;;;;;;5015501;28;20034;-58
2022/05/04 01:43:08;;;;;;;22.10;14.45;;;8.60;99.90;;;;;;5013159;28;20029;-58
2022/05/04 01:45:33;;;;;;;21.75;13.35;;;8.60;99.90;;;;;;5026867;28;20048;-60
2022/05/04 01:47:59;;;;;;;23.02;14.23;;;8.70;99.90;;;;;;5015823;28;20045;-57
2022/05/04 01:50:24;;;;;;;17.17;12.02;;;8.70;99.90;;;;;;5039978;28;20061;-58
2022/05/04 01:52:50;;;;;;;20.92;13.45;;;8.80;99.90;;;;;;5019851;28;20045;-60
2022/05/04 01:55:17;;;;;;;20.83;12.98;;;8.80;99.90;;;;;;5019124;28;20041;-58
2022/05/04 01:57:42;;;;;;;21.00;12.85;;;8.90;99.90;;;;;;5028962;28;20064;-59
2022/05/04 02:00:09;;;;;;;21.30;13.48;;;8.90;99.90;;;;;;5023793;28;20783;-51
2022/05/04 02:02:35;;;;;;;22.35;13.43;;;8.90;99.90;;;;;;5022585;28;20490;-57
2022/05/04 02:05:01;;;;;;;20.50;13.00;;;8.90;99.90;;;;;;5024245;28;20073;-59
2022/05/04 02:07:28;;;;;;;23.23;14.38;;;8.90;99.90;;;;;;5028675;28;20108;-58
2022/05/04 02:09:54;;;;;;;21.60;14.40;;;9.00;99.90;;;;;;5027689;28;20566;-59
2022/05/04 02:12:20;;;;;;;24.63;14.93;;;9.00;99.90;;;;;;5027812;28;20035;-59
2022/05/04 02:14:45;;;;;;;20.85;14.18;;;9.10;99.90;;;;;;5028340;28;20021;-59
2022/05/04 02:17:11;;;;;;;25.48;14.93;;;9.10;99.90;;;;;;5031024;28;20053;-60
2022/05/04 02:19:36;;;;;;;22.15;14.10;;;9.00;99.90;;;;;;5029674;28;20022;-60
2022/05/04 02:22:02;;;;;;;18.85;12.70;;;9.00;99.90;;;;;;5030662;28;20064;-55
2022/05/04 02:24:28;;;;;;;21.80;13.90;;;8.90;99.90;;;;;;5030717;28;20092;-56
2022/05/04 02:26:53;;;;;;;19.85;13.23;;;8.90;99.90;;;;;;5031076;28;20111;-57
2022/05/04 02:29:19;;;;;;;22.92;14.20;;;8.90;99.90;;;;;;5029366;28;20037;-60
2022/05/04 02:31:44;;;;;;;22.90;15.02;;;8.90;99.90;;;;;;5029960;28;20068;-56
2022/05/04 02:34:10;;;;;;;22.38;15.32;;;8.90;99.90;;;;;;5023236;28;20052;-53
2022/05/04 02:39:19;;;;;;;;;;;8.90;99.90;;;;;;5025724;28;20084;-57
2022/05/04 02:41:48;;;;;;;21.17;14.20;;;9.00;99.90;;;;;;5030366;28;19913;-58
2022/05/04 02:44:14;;;;;;;25.58;16.45;;;9.00;99.90;;;;;;5028076;28;20458;-60
2022/05/04 02:46:39;;;;;;;23.58;14.90;;;9.10;99.90;;;;;;5024597;28;20049;-60
2022/05/04 02:49:05;;;;;;;24.77;14.38;;;9.10;99.90;;;;;;5025601;28;20025;-56
2022/05/04 02:51:30;;;;;;;22.23;14.00;;;9.10;99.90;;;;;;5031110;28;20037;-57
2022/05/04 02:53:56;;;;;;;22.83;13.90;;;9.10;99.90;;;;;;5030532;28;20032;-57
2022/05/04 02:56:21;;;;;;;19.92;12.90;;;9.10;99.90;;;;;;5028017;28;20091;-59
2022/05/04 02:58:51;;;;;;;19.02;11.40;;;9.00;99.90;;;;;;5030434;28;20030;-60
2022/05/04 03:04:08;;;;;;;;;;;8.80;99.90;;;;;;5025750;28;20052;-58
2022/05/04 03:06:35;;;;;;;17.23;11.80;;;8.70;99.90;;;;;;5030221;28;19917;-59
2022/05/04 03:09:00;;;;;;;17.38;10.82;;;8.70;99.90;;;;;;5028870;28;20029;-58
2022/05/04 03:13:54;;;;;;;16.77;11.75;;;8.80;99.90;;;;;;4981542;28;20548;-58
2022/05/04 03:16:19;;;;;;;19.25;12.73;;;8.80;99.90;;;;;;4989834;28;20034;-58
2022/05/04 03:18:45;;;;;;;20.08;12.25;;;8.70;99.90;;;;;;4991145;28;20479;-58
2022/05/04 03:21:10;;;;;;;22.40;11.73;;;8.70;99.90;;;;;;4984049;28;20072;-57
2022/05/04 03:23:36;;;;;;;19.85;13.45;;;8.70;99.90;;;;;;4988042;28;20029;-57
2022/05/04 03:26:01;;;;;;;22.20;12.48;;;8.70;99.90;;;;;;4991467;28;20042;-57
2022/05/04 03:28:27;;;;;;;19.10;12.73;;;8.80;99.90;;;;;;4990697;28;20428;-58
2022/05/04 03:30:52;;;;;;;18.60;12.60;;;8.80;99.90;;;;;;4990011;28;20030;-57
2022/05/04 03:33:18;;;;;;;17.55;11.75;;;8.80;99.90;;;;;;4987558;28;20034;-58
2022/05/04 03:35:43;;;;;;;19.42;10.40;;;8.80;99.90;;;;;;4985920;28;20505;-59
2022/05/04 03:38:09;;;;;;;17.50;10.75;;;8.80;99.90;;;;;;4985970;28;20041;-55
2022/05/04 03:40:34;;;;;;;16.77;12.23;;;8.90;99.90;;;;;;4991445;28;20026;-58
2022/05/04 03:43:00;;;;;;;18.05;11.60;;;8.80;99.90;;;;;;4992283;28;20550;-58
2022/05/04 03:45:27;;;;;;;16.10;11.45;;;8.80;99.90;;;;;;4988901;28;20085;-58
2022/05/04 03:47:53;;;;;;;17.65;11.52;;;8.80;99.90;;;;;;4991113;28;20523;-57
2022/05/04 03:50:18;;;;;;;15.95;11.75;;;8.90;99.90;;;;;;4991722;28;20093;-58
2022/05/04 03:52:44;;;;;;;17.92;11.90;;;8.90;99.90;;;;;;4991451;28;20077;-58
2022/05/04 03:55:09;;;;;;;21.38;12.88;;;8.90;99.90;;;;;;4989113;28;20062;-58
2022/05/04 03:57:35;;;;;;;20.85;12.45;;;8.90;99.90;;;;;;4988082;28;20117;-58
2022/05/04 04:00:00;;;;;;;19.70;12.77;;;8.80;99.90;;;;;;4989624;28;20092;-58
2022/05/04 04:02:26;;;;;;;26.40;12.65;;;8.80;99.90;;;;;;4988284;28;20073;-58
2022/05/04 04:04:51;;;;;;;24.33;13.35;;;8.80;99.90;;;;;;4987897;28;20036;-58
2022/05/04 04:07:17;;;;;;;19.30;12.38;;;8.80;99.90;;;;;;4986230;28;20027;-57
2022/05/04 04:09:43;;;;;;;22.42;13.02;;;8.80;99.90;;;;;;4991150;28;20021;-58
2022/05/04 04:12:09;;;;;;;20.80;13.27;;;8.80;99.90;;;;;;4988909;28;20125;-58
2022/05/04 04:14:34;;;;;;;19.95;12.73;;;8.80;99.90;;;;;;4991111;28;20034;-58
2022/05/04 04:17:00;;;;;;;18.08;12.13;;;8.80;99.90;;;;;;4988230;28;20026;-58
2022/05/04 04:19:25;;;;;;;19.38;13.00;;;8.80;99.90;;;;;;4989598;28;20042;-57
2022/05/04 04:21:52;;;;;;;19.92;12.30;;;8.80;99.90;;;;;;4988144;28;20051;-58
2022/05/04 04:24:17;;;;;;;17.52;12.32;;;8.70;99.90;;;;;;4989667;28;20034;-58
2022/05/04 04:26:43;;;;;;;19.08;12.70;;;8.70;99.90;;;;;;4982733;28;20038;-58
2022/05/04 04:29:09;;;;;;;21.67;13.25;;;8.70;99.90;;;;;;4989463;28;20777;-56
2022/05/04 04:31:34;;;;;;;21.52;14.70;;;8.70;99.90;;;;;;4983261;28;20019;-57
2022/05/04 04:34:04;;;;;;;18.98;12.18;;;8.70;99.90;;;;;;4989654;28;20037;-58
2022/05/04 04:36:30;;;;;;;16.58;11.70;;;8.70;99.90;;;;;;4983345;28;20030;-58
2022/05/04 04:38:55;;;;;;;17.45;12.52;;;8.80;99.90;;;;;;4986418;28;20404;-56
2022/05/04 04:41:21;;;;;;;15.68;11.40;;;8.80;99.90;;;;;;4991021;28;20034;-61
2022/05/04 04:43:47;;;;;;;15.75;11.05;;;8.80;99.90;;;;;;4991224;28;20034;-58
2022/05/04 04:46:12;;;;;;;14.13;10.45;;;8.90;99.90;;;;;;4988810;28;20026;-56
2022/05/04 04:48:38;;;;;;;16.40;12.50;;;9.00;99.90;;;;;;4990407;28;20022;-61
2022/05/04 04:51:04;;;;;;;19.15;12.63;;;9.20;99.90;;;;;;4991359;28;20037;-60
2022/05/04 04:53:29;;;;;;;24.90;14.43;;;9.20;99.90;;;;;;4975963;28;20034;-57
2022/05/04 04:55:55;;;;;;;20.88;13.45;;;9.30;99.90;;;;;;4982352;28;20022;-58
2022/05/04 04:58:20;;;;;;;21.23;11.82;;;9.40;99.90;;;;;;4988360;28;20058;-58
2022/05/04 05:00:46;;;;;;;15.02;10.32;;;9.50;99.90;;;;;;4989708;28;20050;-57
2022/05/04 05:03:12;;;;;;;17.38;11.15;;;9.80;99.90;;;;;;4989136;28;20028;-58
2022/05/04 05:05:41;;;;;;;18.95;11.13;;;9.90;99.90;;;;;;4989407;28;20404;-57
2022/05/04 05:08:08;;;;;;;19.85;11.93;;;10.00;99.90;;;;;;4981738;28;20026;-58
2022/05/04 05:10:34;;;;;;;14.68;10.05;;;10.20;99.90;;;;;;4990033;28;20102;-58
2022/05/04 05:12:59;;;;;;;15.55;9.93;;;10.60;99.90;;;;;;4982193;28;20038;-58
2022/05/04 05:18:09;;;;;;;;;;;12.00;99.90;;;;;;4990261;28;20429;-59
2022/05/04 05:20:35;;;;;;;20.45;7.82;;;12.10;99.90;;;;;;4988264;28;19914;-58
2022/05/04 05:23:02;;;;;;;13.85;8.20;;;11.90;99.90;;;;;;4985008;28;20093;-58
2022/05/04 05:25:29;;;;;;;14.10;8.60;;;12.00;99.90;;;;;;4989929;28;20109;-57
2022/05/04 05:27:55;;;;;;;12.77;7.90;;;12.20;99.90;;;;;;4989948;28;20019;-58
2022/05/04 05:30:21;;;;;;;10.45;8.52;;;12.60;99.90;;;;;;4988990;28;20037;-58
2022/05/04 05:32:46;;;;;;;11.75;7.93;;;13.30;99.90;;;;;;4978456;28;20031;-58
2022/05/04 05:35:12;;;;;;;16.27;8.45;;;14.10;99.90;;;;;;4977068;28;20065;-58
2022/05/04 05:37:37;;;;;;;13.43;8.82;;;15.00;99.70;;;;;;4988313;28;20058;-59
2022/05/04 05:40:04;;;;;;;10.02;7.38;;;15.00;98.90;;;;;;4987311;28;20039;-59
2022/05/04 05:42:30;;;;;;;9.70;7.43;;;15.70;98.00;;;;;;4992082;28;20085;-59
2022/05/04 05:44:55;;;;;;;8.98;7.90;;;15.50;97.50;;;;;;4993332;28;20030;-59
2022/05/04 05:47:21;;;;;;;10.27;8.48;;;15.10;97.60;;;;;;4994237;28;20069;-59
2022/05/04 05:49:46;;;;;;;14.40;8.82;;;15.40;98.50;;;;;;4994426;28;20031;-59
2022/05/04 05:52:12;;;;;;;12.13;9.07;;;15.40;98.20;;;;;;4992290;28;20026;-54
2022/05/04 05:54:37;;;;;;;11.25;8.55;;;15.70;97.30;;;;;;4984254;28;20060;-58
2022/05/04 05:57:03;;;;;;;20.52;9.93;;;15.20;97.90;;;;;;4990617;28;20499;-59
2022/05/04 05:59:29;;;;;;;17.13;10.65;;;14.60;99.10;;;;;;4989089;28;20057;-58
2022/05/04 06:01:55;;;;;;;14.43;9.65;;;14.40;99.90;;;;;;4992010;28;20030;-58
2022/05/04 06:04:20;;;;;;;12.10;9.18;;;14.10;99.90;;;;;;4990136;28;20476;-59
2022/05/04 06:06:46;;;;;;;16.23;10.25;;;14.10;99.90;;;;;;4992500;28;20459;-59
2022/05/04 06:09:12;;;;;;;13.30;10.43;;;14.10;99.90;;;;;;4992039;28;20057;-59
2022/05/04 06:11:37;;;;;;;17.35;10.00;;;13.70;99.90;;;;;;4991649;28;20085;-58
2022/05/04 06:14:03;;;;;;;19.35;10.10;;;13.30;99.90;;;;;;4988463;28;20018;-58
2022/05/04 06:16:29;;;;;;;14.52;10.20;;;13.40;99.90;;;;;;4987313;28;20095;-57
2022/05/04 06:18:54;;;;;;;14.25;11.07;;;13.50;99.90;;;;;;4992134;28;20472;-58
2022/05/04 06:21:20;;;;;;;14.10;10.25;;;13.30;99.90;;;;;;4989268;28;20033;-58
2022/05/04 06:23:46;;;;;;;21.52;14.40;;;13.70;99.90;;;;;;4989123;28;20027;-59
2022/05/04 06:26:13;;;;;;;17.48;11.40;;;14.40;99.90;;;;;;4992175;28;20391;-58
2022/05/04 06:28:38;;;;;;;16.88;10.85;;;15.50;99.90;;;;;;4990800;28;20101;-59
2022/05/04 06:34:06;;;;;;;20.83;12.00;;;16.30;97.20;;;;;;4988289;28;20034;-59
2022/05/04 06:36:32;;;;;;;17.33;11.93;;;16.40;97.70;;;;;;4992490;28;20033;-59
2022/05/04 06:38:58;;;;;;;24.48;12.18;;;16.90;97.10;;;;;;4990883;28;20034;-59
2022/05/04 06:41:24;;;;;;;15.15;10.23;;;17.20;97.30;;;;;;4991087;28;20034;-59
2022/05/04 06:43:49;;;;;;;19.45;11.55;;;17.00;96.50;;;;;;4989244;28;20034;-59
2022/05/04 06:46:15;;;;;;;25.35;12.23;;;17.10;95.70;;;;;;4990653;28;20165;-58
2022/05/04 06:48:41;;;;;;;20.10;12.75;;;17.10;95.90;;;;;;4989474;28;20072;-58
2022/05/04 06:51:08;;;;;;;16.95;11.38;;;16.80;96.70;;;;;;4992756;28;20029;-58
2022/05/04 06:53:34;;;;;;;17.48;11.18;;;16.90;96.20;;;;;;4990256;28;20608;-59
2022/05/04 06:56:00;;;;;;;22.23;12.70;;;16.80;96.60;;;;;;4985490;28;20056;-59
2022/05/04 06:58:26;;;;;;;20.15;12.15;;;16.90;96.10;;;;;;4987882;28;20023;-59
2022/05/04 07:00:51;;;;;;;17.85;11.95;;;17.10;96.40;;;;;;4970564;28;20399;-59
2022/05/04 07:03:17;;;;;;;17.35;12.25;;;17.20;95.60;;;;;;4989273;28;20129;-59
2022/05/04 07:05:43;;;;;;;21.08;12.82;;;17.70;94.90;;;;;;4986998;28;20019;-59
2022/05/04 07:08:09;;;;;;;22.42;11.55;;;18.10;94.60;;;;;;4987825;28;20031;-60
2022/05/04 07:10:35;;;;;;;18.80;11.95;;;18.30;93.50;;;;;;4991087;28;20022;-59
2022/05/04 07:13:00;;;;;;;20.23;11.63;;;18.20;93.20;;;;;;4988609;28;20026;-60
2022/05/04 07:15:26;;;;;;;19.00;12.13;;;19.00;93.30;;;;;;4989356;28;20399;-59
2022/05/04 07:17:51;;;;;;;14.95;10.60;;;19.90;91.50;;;;;;4990263;28;20507;-59
2022/05/04 07:20:17;;;;;;;16.02;10.57;;;20.90;90.10;;;;;;4989735;28;20022;-58
2022/05/04 07:22:43;;;;;;;17.55;10.95;;;20.60;88.80;;;;;;4991205;28;20113;-59
2022/05/04 07:25:08;;;;;;;16.65;9.68;;;20.90;87.70;;;;;;4984910;28;20081;-58
2022/05/04 07:27:34;;;;;;;15.73;10.98;;;21.60;85.40;;;;;;4988848;28;20495;-60
2022/05/04 07:30:00;;;;;;;19.08;11.23;;;21.40;83.70;;;;;;4987603;28;20097;-60
2022/05/04 07:32:25;;;;;;;16.88;10.90;;;21.60;82.50;;;;;;4989186;28;20031;-60
2022/05/04 07:34:51;;;;;;;17.35;11.40;;;21.70;82.30;;;;;;4985605;28;20034;-60
2022/05/04 07:37:16;;;;;;;20.30;10.90;;;21.60;82.00;;;;;;4989035;28;20041;-60
2022/05/04 07:42:26;;;;;;;23.13;12.55;;;20.30;83.40;;;;;;4990562;28;20349;-59
2022/05/04 07:45:05;;;;;;;15.43;11.52;;;20.20;85.10;;;;;;4988802;28;20038;-59
2022/05/04 07:47:32;;;;;;;19.08;11.85;;;20.00;84.00;;;;;;4989237;28;20038;-58
2022/05/04 07:49:59;;;;;;;20.45;12.55;;;19.90;85.00;;;;;;4988734;28;20019;-59
2022/05/04 07:52:25;;;;;;;24.13;12.63;;;20.30;84.50;;;;;;4990800;28;20081;-60
2022/05/04 07:54:52;;;;;;;23.85;12.98;;;20.60;83.50;;;;;;4980817;28;20035;-60
2022/05/04 07:57:17;;;;;;;18.52;12.55;;;20.80;83.10;;;;;;4990683;28;20168;-60
2022/05/04 08:04:16;;;;;;;18.05;12.07;;;21.60;82.00;;;;;;4983103;28;20030;-60
2022/05/04 08:05:13;;;;;;;17.42;11.63;;;20.90;82.10;;;;;;4985307;28;20042;-59
2022/05/04 08:07:38;;;;;;;17.67;11.15;;;20.00;85.10;;;;;;4988112;28;20034;-59
2022/05/04 08:10:04;;;;;;;18.52;12.77;;;20.10;84.20;;;;;;4982869;28;20041;-60
2022/05/04 08:12:32;;;;;;;21.50;11.68;;;20.90;83.80;;;;;;4990164;28;20060;-60
2022/05/04 08:14:57;;;;;;;19.23;11.35;;;21.60;82.10;;;;;;4986174;28;20022;-59
2022/05/04 08:17:23;;;;;;;17.98;11.15;;;21.60;80.10;;;;;;4990480;28;20034;-60
2022/05/04 08:19:48;;;;;;;16.05;12.02;;;22.10;79.00;;;;;;4986439;28;20531;-60
2022/05/04 08:22:14;;;;;;;23.00;10.85;;;22.20;78.40;;;;;;4983376;28;20037;-56
2022/05/04 08:24:40;;;;;;;17.52;11.63;;;22.50;77.80;;;;;;4980301;28;20492;-59
2022/05/04 08:27:06;;;;;;;17.02;12.23;;;23.50;78.10;;;;;;4988057;28;20033;-60
2022/05/04 08:29:31;;;;;;;19.15;11.32;;;22.90;76.40;;;;;;4988474;28;20430;-60
2022/05/04 08:31:59;;;;;;;21.02;11.55;;;22.60;76.90;;;;;;4988016;28;20018;-60
2022/05/04 08:34:24;;;;;;;20.45;12.27;;;22.10;77.10;;;;;;4981687;28;20407;-60
2022/05/04 08:36:50;;;;;;;18.00;12.30;;;22.60;77.90;;;;;;4986130;28;20034;-60
2022/05/04 08:39:15;;;;;;;17.65;12.13;;;22.40;76.00;;;;;;4988615;28;20066;-59
2022/05/04 08:41:42;;;;;;;18.58;12.52;;;22.00;78.30;;;;;;4980637;28;20026;-59
2022/05/04 08:44:10;;;;;;;20.35;12.68;;;22.80;76.40;;;;;;4984445;28;20034;-60
2022/05/04 08:46:38;;;;;;;23.38;12.80;;;22.70;76.60;;;;;;4983621;28;20030;-59
2022/05/04 08:49:05;;;;;;;19.58;14.13;;;22.00;76.80;;;;;;4983957;28;20018;-59
2022/05/04 08:51:32;;;;;;;21.55;15.15;;;21.80;77.40;;;;;;4988195;28;20022;-60
2022/05/04 08:53:57;;;;;;;23.98;15.35;;;21.40;78.00;;;;;;4980499;28;20020;-59
2022/05/04 08:56:23;;;;;;;27.80;14.50;;;20.70;78.70;;;;;;4989362;28;20141;-59
2022/05/04 08:58:48;;;;;;;22.23;14.50;;;21.20;80.20;;;;;;4990152;28;20042;-57
2022/05/04 09:01:14;;;;;;;19.30;14.23;;;21.00;79.80;;;;;;4987869;28;20034;-60
2022/05/04 09:03:40;;;;;;;24.42;14.63;;;21.50;79.90;;;;;;4982761;28;20030;-59
2022/05/04 09:06:06;;;;;;;22.75;15.02;;;21.30;79.70;;;;;;4986021;28;20061;-59
2022/05/04 09:08:59;;;;;;;19.98;13.43;;;21.30;79.40;;;;;;4987287;28;20022;-59
2022/05/04 09:11:25;;;;;;;;;;;22.20;78.50;;;;;;4989866;28;20022;-60
2022/05/04 09:13:52;;;;;;;19.95;14.50;;;22.60;76.90;;;;;;4984941;28;19913;-59
2022/05/04 09:16:44;;;;;;;27.35;14.30;;;22.60;76.50;;;;;;4977766;28;20083;-60
2022/05/04 09:19:12;;;;;;;18.15;13.02;;;22.70;76.70;;;;;;4978044;28;20085;-60
2022/05/04 09:21:41;;;;;;;23.42;14.32;;;23.00;74.50;;;;;;4988843;28;20030;-60
2022/05/04 09:24:08;;;;;;;17.65;13.18;;;22.60;76.30;;;;;;4987032;28;20112;-58
2022/05/04 09:26:44;;;;;;;26.27;15.52;;;22.20;75.30;;;;;;4987850;28;20034;-59
2022/05/04 09:29:12;;;;;;;21.63;14.27;;;21.40;76.40;;;;;;4988686;28;20027;-60
2022/05/04 09:31:41;;;;;;;25.02;14.18;;;21.60;77.70;;;;;;4981898;28;20100;-59
2022/05/04 09:34:08;;;;;;;20.23;13.57;;;21.30;78.00;;;;;;4988384;28;20019;-59
2022/05/04 09:36:36;;;;;;;22.85;14.40;;;21.10;79.80;;;;;;4984430;28;20117;-59
2022/05/04 09:44:55;;;;;;;24.77;12.75;;;21.70;79.80;;;;;;4982275;28;20038;-59
2022/05/04 09:47:21;;;;;;;19.65;13.85;;;22.00;76.80;;;;;;4989132;28;20026;-59
2022/05/04 09:49:48;;;;;;;20.15;13.55;;;22.10;76.90;;;;;;4988152;28;20038;-59
2022/05/04 09:52:15;;;;;;;19.60;13.27;;;22.00;77.10;;;;;;4989243;28;20054;-55
2022/05/04 09:54:41;;;;;;;21.50;14.45;;;22.30;77.50;;;;;;4985665;28;20061;-60
2022/05/04 09:57:07;;;;;;;17.90;14.05;;;22.90;75.40;;;;;;4984951;28;20034;-60
2022/05/04 09:59:35;;;;;;;20.33;14.02;;;23.20;75.30;;;;;;4986989;28;20403;-60
2022/05/04 10:02:03;;;;;;;20.77;14.05;;;23.50;74.50;;;;;;4989505;28;20030;-60
2022/05/04 10:04:32;;;;;;;24.02;14.35;;;23.30;74.00;;;;;;4985305;28;20790;-59
2022/05/04 10:07:00;;;;;;;23.85;13.98;;;22.80;74.30;;;;;;4979848;28;20089;-58
2022/05/04 10:09:26;;;;;;;22.83;13.35;;;22.80;75.20;;;;;;4979495;28;20530;-59
2022/05/04 10:11:57;;;;;;;19.55;13.77;;;22.70;74.70;;;;;;4985184;28;20030;-59
2022/05/04 10:14:24;;;;;;;17.33;13.75;;;22.40;73.30;;;;;;4980795;28;20030;-59
2022/05/04 10:17:02;;;;;;;19.67;13.60;;;22.10;76.10;;;;;;4974414;28;20130;-59
2022/05/04 10:19:36;;;;;;;22.90;13.25;;;22.20;78.20;;;;;;4981158;28;20479;-58
2022/05/04 10:22:05;;;;;;;24.63;12.88;;;22.30;76.00;;;;;;4987511;28;20054;-59
2022/05/04 10:24:35;;;;;;;19.48;12.75;;;22.20;77.40;;;;;;4977715;28;20026;-58
2022/05/04 10:27:23;;;;;;;18.13;13.43;;;22.50;76.80;;;;;;4967322;28;20114;-59
2022/05/04 10:32:44;;;;;;;24.00;13.32;;;22.30;75.80;;;;;;4988104;28;21347;-59
2022/05/04 10:35:20;;;;;;;21.85;14.68;;;22.30;76.00;;;;;;4988973;28;20101;-58
2022/05/04 10:37:58;;;;;;;19.23;13.32;;;22.20;76.00;;;;;;4986450;28;20034;-58
2022/05/04 10:40:27;;;;;;;20.15;13.43;;;22.40;74.10;;;;;;4988743;28;20113;-59
2022/05/04 10:42:58;;;;;;;25.73;14.80;;;22.30;73.80;;;;;;4988450;28;20058;-59
2022/05/04 10:45:34;;;;;;;22.33;14.07;;;22.30;75.00;;;;;;4987473;28;20030;-59
2022/05/04 10:48:24;;;;;;;18.50;13.52;;;22.10;75.70;;;;;;4985105;28;20096;-58
2022/05/04 10:50:55;;;;;;;21.80;14.43;;;22.00;75.90;;;;;;4985702;28;20022;-57
2022/05/04 10:53:24;;;;;;;19.63;14.05;;;22.10;75.40;;;;;;4988044;28;20027;-57
2022/05/04 10:56:01;;;;;;;21.98;14.15;;;22.00;74.90;;;;;;4986933;28;20105;-58
2022/05/04 10:58:30;;;;;;;22.92;15.38;;;22.00;75.90;;;;;;4984926;28;20211;-57
2022/05/04 11:01:06;;;;;;;22.58;14.60;;;21.40;75.70;;;;;;4987506;28;20084;-55
2022/05/04 11:03:35;;;;;;;18.83;14.35;;;21.70;76.60;;;;;;4990155;28;20034;-58
2022/05/04 11:06:07;;;;;;;27.77;16.60;;;22.10;73.90;;;;;;4989646;28;20034;-57
2022/05/04 11:08:35;;;;;;;27.33;16.20;;;21.90;74.00;;;;;;4988007;28;20042;-59
2022/05/04 11:11:00;;;;;;;19.67;15.60;;;21.80;75.20;;;;;;4988402;28;20395;-55
2022/05/04 11:13:26;;;;;;;25.05;16.27;;;21.70;75.30;;;;;;4985526;28;20030;-58
2022/05/04 11:15:55;;;;;;;25.55;17.20;;;22.00;73.90;;;;;;4984652;28;20109;-58
2022/05/04 11:18:21;;;;;;;22.85;17.42;;;22.00;74.90;;;;;;4980153;28;20039;-59
2022/05/04 11:20:46;;;;;;;26.85;15.77;;;21.90;72.60;;;;;;4988355;28;20030;-59
2022/05/04 11:23:12;;;;;;;24.00;16.20;;;22.10;74.80;;;;;;4989540;28;20022;-58
2022/05/04 11:25:38;;;;;;;20.67;15.15;;;22.30;74.50;;;;;;4984301;28;20038;-58
2022/05/04 11:28:04;;;;;;;23.48;17.58;;;21.90;75.50;;;;;;4987975;28;20018;-59
2022/05/04 11:30:30;;;;;;;22.90;17.13;;;21.40;76.10;;;;;;4990503;28;20073;-59
2022/05/04 11:32:56;;;;;;;29.23;18.33;;;21.60;77.20;;;;;;4985342;28;20022;-56
2022/05/04 11:35:25;;;;;;;31.23;18.30;;;21.30;73.80;;;;;;4988479;28;20026;-59
2022/05/04 11:37:51;;;;;;;27.77;18.15;;;21.30;74.10;;;;;;4991141;28;20049;-59
2022/05/04 11:40:17;;;;;;;27.08;18.33;;;21.30;74.20;;;;;;4982233;28;20054;-56
2022/05/04 11:42:44;;;;;;;22.45;17.05;;;21.00;76.10;;;;;;4990315;28;20149;-58
2022/05/04 11:45:13;;;;;;;28.83;17.83;;;21.00;76.50;;;;;;4983008;28;20053;-58
2022/05/04 11:47:38;;;;;;;26.77;18.15;;;21.10;75.50;;;;;;4985357;28;20134;-59
2022/05/04 11:50:05;;;;;;;31.58;19.17;;;21.00;77.80;;;;;;4986793;28;20109;-59
2022/05/04 11:52:31;;;;;;;27.60;18.63;;;20.90;77.00;;;;;;4983814;28;20064;-58
2022/05/04 11:55:01;;;;;;;28.20;18.92;;;20.80;80.50;;;;;;4986349;28;20022;-57
2022/05/04 11:57:26;;;;;;;26.20;19.55;;;20.80;76.00;;;;;;4984716;28;20161;-58
2022/05/04 11:59:52;;;;;;;29.50;18.40;;;20.60;75.80;;;;;;4988326;28;20105;-59
2022/05/04 12:02:18;;;;;;;30.92;19.60;;;20.60;75.50;;;;;;4986446;28;20113;-58
2022/05/04 12:04:45;;;;;;;25.65;18.50;;;20.50;74.90;;;;;;4979188;28;20161;-58
2022/05/04 12:07:11;;;;;;;27.88;19.02;;;20.50;74.80;;;;;;4984627;28;20022;-59
2022/05/04 12:09:36;;;;;;;29.92;19.63;;;20.30;76.50;;;;;;4985380;28;20031;-58
2022/05/04 12:12:02;;;;;;;26.02;18.02;;;20.20;77.50;;;;;;4990853;28;20066;-58
2022/05/04 12:14:28;;;;;;;27.75;20.20;;;20.10;78.30;;;;;;4975199;28;20033;-58
2022/05/04 12:16:54;;;;;;;26.73;18.67;;;20.00;78.30;;;;;;4984964;28;20022;-55
2022/05/04 12:19:20;;;;;;;29.70;19.65;;;20.00;79.40;;;;;;4985643;28;20049;-58
2022/05/04 12:21:46;;;;;;;24.88;17.67;;;20.20;79.00;;;;;;4984402;28;20050;-59
2022/05/04 12:24:13;;;;;;;26.92;18.02;;;20.50;77.00;;;;;;4993476;28;20022;-59
2022/05/04 12:26:39;;;;;;;26.52;18.58;;;20.60;79.40;;;;;;4988770;28;20301;-59
2022/05/04 12:34:34;;;;;;;31.27;18.48;;;20.30;77.00;;;;;;4983322;28;20137;-59
2022/05/04 12:37:00;;;;;;;28.33;17.90;;;20.10;77.70;;;;;;4982285;28;20106;-58
2022/05/04 12:39:26;;;;;;;28.55;20.38;;;20.10;77.10;;;;;;4980841;28;20023;-58
2022/05/04 12:41:59;;;;;;;24.85;17.83;;;20.30;75.80;;;;;;4990786;28;20557;-59
2022/05/04 12:44:25;;;;;;;27.63;18.35;;;20.60;76.20;;;;;;4986811;28;20133;-58
2022/05/04 12:46:57;;;;;;;26.40;17.52;;;20.60;75.00;;;;;;4990269;28;20042;-58
2022/05/04 12:49:22;;;;;;;26.77;18.23;;;20.70;76.40;;;;;;4985306;28;20061;-58
2022/05/04 12:51:48;;;;;;;25.55;16.90;;;20.80;74.50;;;;;;4989331;28;20050;-58
2022/05/04 12:54:16;;;;;;;24.80;17.45;;;21.00;74.80;;;;;;4989990;28;20432;-57
2022/05/04 12:56:48;;;;;;;26.67;17.27;;;21.10;74.30;;;;;;4994781;28;20030;-58
2022/05/04 12:59:18;;;;;;;28.00;17.98;;;21.40;74.10;;;;;;4981979;28;20074;-59
2022/05/04 13:01:44;;;;;;;24.77;17.65;;;21.40;73.80;;;;;;4990912;28;20042;-58
2022/05/04 13:04:12;;;;;;;26.63;18.17;;;21.40;71.00;;;;;;4972680;28;20042;-59